Time;durP1;ratioP1;P1;durP2;ratioP2;P2;SDS_P1;SDS_P2;PMS_P1;PMS_P2;Temp;Humidity;BMP_temperature;BMP_pressure;BME280_temperature;BME280_humidity;BME280_pressure;Samples;Min_cycle;Max_cycle;Signal;HPM_P1;HPM_P2
2021/08/17 00:00:26;;;;;;;10.63;4.90;;;;;;;;;;5111649;28;20051;-71
2021/08/17 00:02:53;;;;;;;12.20;5.68;;;;;;;;;;5112017;28;20051;-71
2021/08/17 00:05:19;;;;;;;14.23;5.50;;;;;;;;;;5103175;28;20048;-71
2021/08/17 00:07:46;;;;;;;10.45;5.38;;;;;;;;;;5101291;28;20059;-71
2021/08/17 00:10:13;;;;;;;11.77;5.30;;;;;;;;;;5111316;28;20052;-71
2021/08/17 00:12:41;;;;;;;9.57;5.35;;;;;;;;;;5114097;28;20048;-71
2021/08/17 00:15:09;;;;;;;13.93;5.60;;;;;;;;;;5115758;28;20833;-71
2021/08/17 00:17:35;;;;;;;10.70;5.82;;;;;;;;;;5115910;28;20105;-71
2021/08/17 00:20:02;;;;;;;10.05;5.05;;;;;;;;;;5115606;28;20047;-71
2021/08/17 00:22:28;;;;;;;10.40;5.10;;;;;;;;;;5115826;28;20472;-70
2021/08/17 00:24:55;;;;;;;12.13;5.85;;;;;;;;;;5110047;28;20052;-70
2021/08/17 00:27:22;;;;;;;11.93;5.30;;;;;;;;;;5100383;28;20048;-70
2021/08/17 00:29:51;;;;;;;12.77;5.57;;;;;;;;;;5115185;28;20054;-70
2021/08/17 00:32:18;;;;;;;11.27;6.15;;;;;;;;;;5094902;28;20378;-70
2021/08/17 00:34:44;;;;;;;12.88;6.05;;;;;;;;;;5095182;28;20137;-70
2021/08/17 00:37:12;;;;;;;11.93;6.28;;;;;;;;;;5115558;28;20499;-70
2021/08/17 00:39:39;;;;;;;10.52;5.78;;;;;;;;;;5115504;28;20055;-70
2021/08/17 00:42:08;;;;;;;11.10;6.28;;;;;;;;;;5115171;28;20543;-71
2021/08/17 00:44:35;;;;;;;10.45;5.68;;;;;;;;;;5115308;28;20488;-70
2021/08/17 00:47:03;;;;;;;8.82;4.22;;;;;;;;;;5115475;28;20051;-69
2021/08/17 00:49:30;;;;;;;8.68;3.65;;;;;;;;;;5115217;27;20052;-70
2021/08/17 00:51:59;;;;;;;7.20;3.70;;;;;;;;;;5115014;28;20063;-70
2021/08/17 00:54:26;;;;;;;7.65;4.25;;;;;;;;;;5115122;28;20053;-70
2021/08/17 00:56:53;;;;;;;4.82;2.53;;;;;;;;;;5115546;28;20066;-71
2021/08/17 00:59:20;;;;;;;6.43;3.05;;;;;;;;;;5115102;28;20514;-71
2021/08/17 01:01:46;;;;;;;6.03;3.05;;;;;;;;;;5114746;28;20059;-71
2021/08/17 01:04:14;;;;;;;7.90;3.40;;;;;;;;;;5115761;28;20405;-70
2021/08/17 01:06:41;;;;;;;5.82;2.80;;;;;;;;;;5114796;28;20055;-70
2021/08/17 01:09:09;;;;;;;6.22;2.65;;;;;;;;;;5114863;28;20048;-70
2021/08/17 01:11:36;;;;;;;4.05;1.95;;;;;;;;;;5109378;28;20058;-70
2021/08/17 01:14:03;;;;;;;3.17;2.08;;;;;;;;;;5111253;28;20047;-70
2021/08/17 01:16:29;;;;;;;2.88;1.63;;;;;;;;;;5111825;28;20412;-70
2021/08/17 01:18:56;;;;;;;3.50;1.70;;;;;;;;;;5114785;28;20051;-69
2021/08/17 01:21:24;;;;;;;2.33;1.10;;;;;;;;;;5111425;28;20048;-69
2021/08/17 01:23:51;;;;;;;2.88;1.30;;;;;;;;;;5112075;28;20051;-70
2021/08/17 01:26:19;;;;;;;4.05;1.65;;;;;;;;;;5111306;28;20052;-70
2021/08/17 01:28:45;;;;;;;3.60;1.33;;;;;;;;;;5102239;28;20048;-69
2021/08/17 01:31:12;;;;;;;4.03;1.23;;;;;;;;;;5106260;28;20055;-70
2021/08/17 01:33:38;;;;;;;6.05;2.25;;;;;;;;;;5114368;28;20067;-70
2021/08/17 01:36:05;;;;;;;3.35;1.10;;;;;;;;;;5114366;28;20055;-70
2021/08/17 01:38:32;;;;;;;2.90;1.25;;;;;;;;;;5114169;28;20047;-70
2021/08/17 01:40:58;;;;;;;2.88;1.23;;;;;;;;;;5113803;28;20475;-70
2021/08/17 01:43:26;;;;;;;2.03;0.80;;;;;;;;;;5114303;28;20649;-70
2021/08/17 01:45:55;;;;;;;2.15;1.20;;;;;;;;;;5114116;28;20544;-70
2021/08/17 01:48:24;;;;;;;3.22;1.17;;;;;;;;;;5114215;28;20051;-70
2021/08/17 01:50:50;;;;;;;2.15;1.02;;;;;;;;;;5113642;28;20039;-70
2021/08/17 01:53:17;;;;;;;2.60;1.00;;;;;;;;;;5113847;28;20047;-70
2021/08/17 01:55:43;;;;;;;2.47;1.27;;;;;;;;;;5113873;28;20051;-70
2021/08/17 01:58:10;;;;;;;1.73;1.05;;;;;;;;;;5113884;28;20056;-70
2021/08/17 02:00:37;;;;;;;3.38;0.93;;;;;;;;;;5112837;28;20431;-70
2021/08/17 02:03:04;;;;;;;3.30;1.35;;;;;;;;;;5108195;28;20044;-70
2021/08/17 02:05:30;;;;;;;2.17;1.00;;;;;;;;;;5099964;28;20048;-70
2021/08/17 02:07:57;;;;;;;2.72;1.20;;;;;;;;;;5113929;28;20507;-70
2021/08/17 02:10:23;;;;;;;5.53;1.45;;;;;;;;;;5113406;28;20580;-70
2021/08/17 02:12:50;;;;;;;3.38;1.60;;;;;;;;;;5113626;28;20055;-70
2021/08/17 02:15:17;;;;;;;2.47;1.10;;;;;;;;;;5113468;28;20058;-70
2021/08/17 02:17:44;;;;;;;3.72;1.17;;;;;;;;;;5113159;28;20055;-70
2021/08/17 02:20:12;;;;;;;2.30;0.77;;;;;;;;;;5113186;28;20052;-70
2021/08/17 02:22:39;;;;;;;3.97;1.50;;;;;;;;;;5112918;28;20056;-70
2021/08/17 02:25:06;;;;;;;3.67;1.42;;;;;;;;;;5112546;28;20039;-70
2021/08/17 02:27:34;;;;;;;2.13;1.08;;;;;;;;;;5106623;28;20058;-70
2021/08/17 02:30:01;;;;;;;2.85;1.08;;;;;;;;;;5103300;28;20101;-70
2021/08/17 02:32:27;;;;;;;4.88;1.20;;;;;;;;;;5113185;28;20126;-70
2021/08/17 02:34:55;;;;;;;4.25;1.10;;;;;;;;;;5112748;28;20487;-70
2021/08/17 02:37:22;;;;;;;3.58;1.48;;;;;;;;;;5111909;28;20070;-70
2021/08/17 02:39:49;;;;;;;3.47;1.73;;;;;;;;;;5106244;28;20050;-71
2021/08/17 02:42:15;;;;;;;3.28;1.23;;;;;;;;;;5112914;28;20420;-71
2021/08/17 02:44:42;;;;;;;3.85;1.55;;;;;;;;;;5112960;28;20044;-70
2021/08/17 02:47:09;;;;;;;3.28;1.30;;;;;;;;;;5098116;28;20055;-70
2021/08/17 02:49:35;;;;;;;2.47;1.30;;;;;;;;;;5104699;28;20043;-70
2021/08/17 02:52:04;;;;;;;2.90;1.38;;;;;;;;;;5108437;28;20043;-70
2021/08/17 02:54:31;;;;;;;6.28;1.65;;;;;;;;;;5113015;28;20054;-70
2021/08/17 02:56:57;;;;;;;3.03;1.38;;;;;;;;;;5113161;28;20054;-70
2021/08/17 02:59:24;;;;;;;3.65;1.23;;;;;;;;;;5112311;28;20056;-70
2021/08/17 03:01:50;;;;;;;5.15;1.60;;;;;;;;;;5112426;28;20460;-70
2021/08/17 03:04:17;;;;;;;4.10;1.50;;;;;;;;;;5112815;28;20047;-70
2021/08/17 03:06:44;;;;;;;4.30;1.10;;;;;;;;;;5112339;28;20475;-70
2021/08/17 03:09:11;;;;;;;3.33;1.75;;;;;;;;;;5112574;28;20064;-71
2021/08/17 03:11:39;;;;;;;3.10;1.30;;;;;;;;;;5112205;28;20054;-70
2021/08/17 03:14:06;;;;;;;3.65;1.35;;;;;;;;;;5112688;28;20484;-71
2021/08/17 03:16:32;;;;;;;3.17;1.35;;;;;;;;;;5112477;28;20052;-70
2021/08/17 03:18:59;;;;;;;4.03;1.27;;;;;;;;;;5111944;28;20059;-70
2021/08/17 03:21:25;;;;;;;2.47;1.27;;;;;;;;;;5112243;28;20051;-70
2021/08/17 03:23:52;;;;;;;2.58;1.23;;;;;;;;;;5112183;28;20049;-70
2021/08/17 03:26:20;;;;;;;2.83;1.17;;;;;;;;;;5111992;28;20389;-70
2021/08/17 03:28:46;;;;;;;3.05;1.55;;;;;;;;;;5104062;28;20040;-70
2021/08/17 03:31:13;;;;;;;2.78;1.40;;;;;;;;;;5106807;28;20050;-70
2021/08/17 03:33:39;;;;;;;4.30;1.30;;;;;;;;;;5112321;28;20059;-70
2021/08/17 03:36:06;;;;;;;2.22;1.23;;;;;;;;;;5111919;28;20047;-71
2021/08/17 03:38:33;;;;;;;1.88;0.98;;;;;;;;;;5112096;28;20047;-70
2021/08/17 03:41:00;;;;;;;7.95;1.80;;;;;;;;;;5112175;28;20400;-70
2021/08/17 03:43:28;;;;;;;2.58;1.23;;;;;;;;;;5112123;28;20048;-70
2021/08/17 03:45:54;;;;;;;3.95;2.47;;;;;;;;;;5111712;28;20062;-70
2021/08/17 03:48:21;;;;;;;3.38;1.63;;;;;;;;;;5112310;28;20404;-70
2021/08/17 03:50:48;;;;;;;4.55;2.05;;;;;;;;;;5111637;28;20043;-70
2021/08/17 03:53:14;;;;;;;5.40;2.38;;;;;;;;;;5111739;28;20141;-70
2021/08/17 03:55:41;;;;;;;4.80;2.42;;;;;;;;;;5111246;28;20054;-70
2021/08/17 03:58:08;;;;;;;6.28;3.13;;;;;;;;;;5112089;28;20044;-71
2021/08/17 04:00:36;;;;;;;6.75;2.80;;;;;;;;;;5111302;28;20047;-70
2021/08/17 04:03:03;;;;;;;7.45;2.55;;;;;;;;;;5111214;28;20039;-71
2021/08/17 04:05:30;;;;;;;4.95;2.40;;;;;;;;;;5111694;28;20063;-71
2021/08/17 04:07:56;;;;;;;5.05;2.65;;;;;;;;;;5111965;28;20078;-71
2021/08/17 04:10:23;;;;;;;6.75;2.58;;;;;;;;;;5111444;28;20135;-71
2021/08/17 04:12:50;;;;;;;6.13;2.85;;;;;;;;;;5111427;28;20052;-71
2021/08/17 04:15:16;;;;;;;5.75;2.95;;;;;;;;;;5111601;28;20680;-71
2021/08/17 04:17:44;;;;;;;7.35;3.08;;;;;;;;;;5111787;28;20043;-71
2021/08/17 04:20:12;;;;;;;10.57;4.60;;;;;;;;;;5110834;28;20393;-71
2021/08/17 04:22:39;;;;;;;14.60;3.50;;;;;;;;;;5111273;28;20419;-71
2021/08/17 04:25:07;;;;;;;6.78;3.50;;;;;;;;;;5111055;28;20470;-69
2021/08/17 04:27:34;;;;;;;8.25;3.28;;;;;;;;;;5108938;28;20051;-70
2021/08/17 04:30:00;;;;;;;6.82;3.17;;;;;;;;;;5104014;28;20146;-71
2021/08/17 04:32:27;;;;;;;7.22;3.30;;;;;;;;;;5102760;28;20385;-71
2021/08/17 04:34:55;;;;;;;10.00;3.08;;;;;;;;;;5109194;28;20043;-72
2021/08/17 04:37:21;;;;;;;7.63;3.08;;;;;;;;;;5109580;28;20066;-71
2021/08/17 04:39:48;;;;;;;6.68;3.28;;;;;;;;;;5108519;28;20479;-71
2021/08/17 04:42:14;;;;;;;6.75;3.20;;;;;;;;;;5109448;28;20046;-71
2021/08/17 04:44:41;;;;;;;9.48;3.80;;;;;;;;;;5110642;28;20054;-71
2021/08/17 04:47:07;;;;;;;8.70;3.72;;;;;;;;;;5111226;28;20048;-70
2021/08/17 04:49:34;;;;;;;8.98;3.72;;;;;;;;;;5108911;28;20495;-71
2021/08/17 04:52:02;;;;;;;7.88;2.97;;;;;;;;;;5105238;28;20040;-71
2021/08/17 04:54:28;;;;;;;8.80;3.47;;;;;;;;;;5097290;28;20062;-71
2021/08/17 04:56:55;;;;;;;9.30;3.30;;;;;;;;;;5105920;28;20052;-71
2021/08/17 04:59:21;;;;;;;6.90;3.53;;;;;;;;;;5110466;28;20051;-71
2021/08/17 05:01:49;;;;;;;8.05;4.07;;;;;;;;;;5111414;28;20040;-71
2021/08/17 05:04:16;;;;;;;7.22;3.90;;;;;;;;;;5109894;28;20055;-71
2021/08/17 05:06:42;;;;;;;8.85;3.53;;;;;;;;;;5108317;28;20048;-71
2021/08/17 05:09:10;;;;;;;7.43;3.20;;;;;;;;;;5110257;28;20071;-71
2021/08/17 05:11:37;;;;;;;8.20;3.90;;;;;;;;;;5106450;28;20044;-71
2021/08/17 05:14:03;;;;;;;12.45;4.40;;;;;;;;;;5109603;28;20044;-71
2021/08/17 05:16:30;;;;;;;8.50;3.53;;;;;;;;;;5107223;28;20051;-71
2021/08/17 05:18:56;;;;;;;8.70;3.38;;;;;;;;;;5110123;28;20487;-71
2021/08/17 05:21:23;;;;;;;9.90;3.60;;;;;;;;;;5109891;28;20048;-71
2021/08/17 05:23:49;;;;;;;6.55;3.17;;;;;;;;;;5110334;28;20495;-71
2021/08/17 05:26:17;;;;;;;7.28;3.55;;;;;;;;;;5111682;28;20055;-71
2021/08/17 05:28:44;;;;;;;7.03;3.72;;;;;;;;;;5106519;28;20048;-71
2021/08/17 05:31:10;;;;;;;8.57;3.60;;;;;;;;;;5108792;28;20051;-71
2021/08/17 05:33:37;;;;;;;7.13;3.42;;;;;;;;;;5095465;28;20073;-70
2021/08/17 05:36:04;;;;;;;6.55;3.20;;;;;;;;;;5108435;28;20043;-71
2021/08/17 05:38:30;;;;;;;5.70;2.70;;;;;;;;;;5112953;28;20067;-71
2021/08/17 05:40:57;;;;;;;7.70;3.22;;;;;;;;;;5112873;28;20061;-71
2021/08/17 05:43:24;;;;;;;6.32;3.22;;;;;;;;;;5113131;28;20055;-71
2021/08/17 05:45:51;;;;;;;8.25;3.33;;;;;;;;;;5112854;28;20047;-71
2021/08/17 05:48:18;;;;;;;10.43;3.42;;;;;;;;;;5112821;28;20051;-71
2021/08/17 05:50:44;;;;;;;8.70;3.33;;;;;;;;;;5112514;28;20582;-71
2021/08/17 05:53:11;;;;;;;6.85;3.08;;;;;;;;;;5113560;28;20040;-71
2021/08/17 05:55:37;;;;;;;12.65;3.90;;;;;;;;;;5113163;27;20051;-71
2021/08/17 05:58:04;;;;;;;8.85;3.50;;;;;;;;;;5113551;28;20059;-71
2021/08/17 06:00:32;;;;;;;5.13;2.85;;;;;;;;;;5113832;28;20048;-71
2021/08/17 06:02:58;;;;;;;6.05;2.90;;;;;;;;;;5113883;28;20050;-71
2021/08/17 06:05:26;;;;;;;7.40;2.95;;;;;;;;;;5113460;28;20074;-71
2021/08/17 06:07:52;;;;;;;6.45;3.30;;;;;;;;;;5113551;28;20142;-71
2021/08/17 06:10:20;;;;;;;7.05;3.25;;;;;;;;;;5113268;28;20100;-71
2021/08/17 06:12:46;;;;;;;6.82;3.28;;;;;;;;;;5113808;28;20716;-71
2021/08/17 06:15:15;;;;;;;7.63;3.63;;;;;;;;;;5113359;28;20035;-71
2021/08/17 06:17:43;;;;;;;5.60;3.00;;;;;;;;;;5113368;28;20047;-71
2021/08/17 06:20:12;;;;;;;9.82;4.40;;;;;;;;;;5112704;28;20108;-71
2021/08/17 06:22:38;;;;;;;7.95;3.63;;;;;;;;;;5113212;28;20043;-71
2021/08/17 06:25:06;;;;;;;8.35;3.65;;;;;;;;;;5113235;28;20403;-71
2021/08/17 06:27:34;;;;;;;7.63;3.03;;;;;;;;;;5113459;28;20047;-71
2021/08/17 06:30:01;;;;;;;11.75;4.78;;;;;;;;;;5110194;28;20546;-71
2021/08/17 06:32:27;;;;;;;10.02;3.78;;;;;;;;;;5103296;28;20044;-71
2021/08/17 06:34:55;;;;;;;7.38;3.00;;;;;;;;;;5100789;28;20048;-71
2021/08/17 06:37:22;;;;;;;6.78;3.17;;;;;;;;;;5092599;28;20044;-71
2021/08/17 06:39:48;;;;;;;8.13;3.45;;;;;;;;;;5093306;28;20405;-72
2021/08/17 06:42:15;;;;;;;6.38;3.42;;;;;;;;;;5113097;28;20050;-71
2021/08/17 06:44:42;;;;;;;7.10;3.22;;;;;;;;;;5112596;28;20052;-71
2021/08/17 06:47:08;;;;;;;6.55;3.00;;;;;;;;;;5113174;28;20058;-71
2021/08/17 06:49:35;;;;;;;8.90;3.15;;;;;;;;;;5112602;28;20058;-71
2021/08/17 06:52:03;;;;;;;8.23;3.42;;;;;;;;;;5112799;28;20043;-71
2021/08/17 06:54:30;;;;;;;6.80;3.70;;;;;;;;;;5113065;28;20059;-71
2021/08/17 06:56:56;;;;;;;8.40;3.65;;;;;;;;;;5111897;28;20051;-71
2021/08/17 06:59:23;;;;;;;5.90;3.13;;;;;;;;;;5112942;28;20051;-71
2021/08/17 07:01:49;;;;;;;8.80;3.50;;;;;;;;;;5112836;27;20048;-71
2021/08/17 07:04:16;;;;;;;7.22;3.20;;;;;;;;;;5112979;28;20061;-71
2021/08/17 07:06:42;;;;;;;8.35;3.55;;;;;;;;;;5112690;28;20047;-71
2021/08/17 07:09:10;;;;;;;6.18;3.10;;;;;;;;;;5112752;28;20049;-71
2021/08/17 07:11:37;;;;;;;8.80;3.50;;;;;;;;;;5112242;28;20051;-71
2021/08/17 07:14:03;;;;;;;10.65;3.70;;;;;;;;;;5112374;28;20043;-71
2021/08/17 07:16:30;;;;;;;8.73;3.35;;;;;;;;;;5111979;28;20055;-71
2021/08/17 07:18:56;;;;;;;6.65;2.95;;;;;;;;;;5112681;28;20479;-71
2021/08/17 07:21:23;;;;;;;9.57;3.20;;;;;;;;;;5111506;28;20051;-71
2021/08/17 07:23:49;;;;;;;8.00;3.22;;;;;;;;;;5112580;28;20496;-71
2021/08/17 07:26:19;;;;;;;4.95;2.90;;;;;;;;;;5112491;28;20506;-71
2021/08/17 07:28:46;;;;;;;6.65;3.03;;;;;;;;;;5112130;28;20051;-71
2021/08/17 07:31:12;;;;;;;5.82;3.35;;;;;;;;;;5108992;28;20121;-71
2021/08/17 07:33:39;;;;;;;6.80;3.25;;;;;;;;;;5102874;28;20059;-71
2021/08/17 07:36:05;;;;;;;7.10;3.40;;;;;;;;;;5109446;28;20078;-71
2021/08/17 07:38:32;;;;;;;7.50;2.90;;;;;;;;;;5112178;28;20135;-71
2021/08/17 07:40:59;;;;;;;7.65;3.00;;;;;;;;;;5111904;28;20044;-71
2021/08/17 07:43:26;;;;;;;7.55;2.97;;;;;;;;;;5112244;28;20157;-70
2021/08/17 07:45:53;;;;;;;6.40;2.97;;;;;;;;;;5111233;28;20055;-70
2021/08/17 07:48:19;;;;;;;7.35;3.15;;;;;;;;;;5112036;28;20058;-70
2021/08/17 07:50:46;;;;;;;5.88;3.05;;;;;;;;;;5111851;28;20051;-70
2021/08/17 07:53:13;;;;;;;7.22;2.75;;;;;;;;;;5111726;28;20042;-71
2021/08/17 07:55:40;;;;;;;8.23;3.83;;;;;;;;;;5111356;28;20047;-71
2021/08/17 07:58:07;;;;;;;7.15;3.00;;;;;;;;;;5111850;28;20046;-71
2021/08/17 08:00:35;;;;;;;9.23;3.67;;;;;;;;;;5112076;28;20043;-69
2021/08/17 08:03:01;;;;;;;5.70;2.88;;;;;;;;;;5111995;28;20055;-70
2021/08/17 08:05:28;;;;;;;6.43;3.28;;;;;;;;;;5108632;28;20051;-70
2021/08/17 08:07:54;;;;;;;5.13;2.42;;;;;;;;;;5106945;28;20051;-70
2021/08/17 08:10:21;;;;;;;7.22;2.88;;;;;;;;;;5107785;28;20480;-68
2021/08/17 08:12:47;;;;;;;7.55;2.83;;;;;;;;;;5111538;28;20044;-68
2021/08/17 08:15:14;;;;;;;8.18;2.78;;;;;;;;;;5111984;28;20126;-68
2021/08/17 08:17:42;;;;;;;6.95;2.60;;;;;;;;;;5111894;28;20054;-68
2021/08/17 08:20:09;;;;;;;5.68;2.60;;;;;;;;;;5111572;28;20051;-68
2021/08/17 08:22:36;;;;;;;5.32;2.97;;;;;;;;;;5111487;28;20054;-68
2021/08/17 08:25:03;;;;;;;6.65;3.00;;;;;;;;;;5111774;28;20043;-70
2021/08/17 08:27:30;;;;;;;6.68;2.38;;;;;;;;;;5111951;28;20484;-70
2021/08/17 08:29:56;;;;;;;6.40;2.63;;;;;;;;;;5110083;28;20050;-68
2021/08/17 08:32:23;;;;;;;7.85;2.85;;;;;;;;;;5111106;28;20694;-68
2021/08/17 08:34:51;;;;;;;7.00;2.88;;;;;;;;;;5106621;28;20435;-68
2021/08/17 08:37:17;;;;;;;7.13;3.35;;;;;;;;;;5099560;28;20480;-68
2021/08/17 08:39:44;;;;;;;6.70;2.88;;;;;;;;;;5095019;28;20048;-68
2021/08/17 08:42:11;;;;;;;6.45;2.85;;;;;;;;;;5115459;28;20403;-68
2021/08/17 08:44:38;;;;;;;5.90;3.08;;;;;;;;;;5115433;28;20051;-68
2021/08/17 08:47:05;;;;;;;7.25;2.92;;;;;;;;;;5115037;28;20054;-68
2021/08/17 08:49:32;;;;;;;6.18;2.88;;;;;;;;;;5115031;28;20052;-68
2021/08/17 08:52:01;;;;;;;8.43;3.47;;;;;;;;;;5114553;28;20047;-70
2021/08/17 08:54:28;;;;;;;6.72;3.10;;;;;;;;;;5114600;28;20139;-69
2021/08/17 08:56:55;;;;;;;5.97;2.50;;;;;;;;;;5114833;27;20052;-69
2021/08/17 08:59:22;;;;;;;7.60;3.25;;;;;;;;;;5114767;28;20044;-69
2021/08/17 09:01:50;;;;;;;6.78;3.35;;;;;;;;;;5115007;28;20065;-69
2021/08/17 09:04:16;;;;;;;7.70;3.30;;;;;;;;;;5115118;28;20505;-69
2021/08/17 09:06:51;;;;;;;7.15;2.97;;;;;;;;;;5114685;28;20472;-69
2021/08/17 09:09:19;;;;;;;8.10;3.05;;;;;;;;;;5115272;28;20055;-71
2021/08/17 09:11:47;;;;;;;9.40;3.40;;;;;;;;;;5114839;28;20131;-69
2021/08/17 09:14:25;;;;;;;7.28;3.50;;;;;;;;;;5114812;28;20392;-68
2021/08/17 09:16:53;;;;;;;5.65;3.03;;;;;;;;;;5114782;28;20059;-68
2021/08/17 09:19:31;;;;;;;5.85;3.20;;;;;;;;;;5114739;28;20488;-69
2021/08/17 09:22:01;;;;;;;6.85;3.55;;;;;;;;;;5113227;28;20062;-69
2021/08/17 09:24:30;;;;;;;8.05;2.92;;;;;;;;;;5114657;28;20066;-69
2021/08/17 09:26:58;;;;;;;5.80;2.58;;;;;;;;;;5114093;28;20043;-69
2021/08/17 09:29:34;;;;;;;5.50;3.22;;;;;;;;;;5114168;28;20488;-69
2021/08/17 09:32:04;;;;;;;6.28;3.67;;;;;;;;;;5114243;28;20500;-69
2021/08/17 09:34:34;;;;;;;7.15;3.22;;;;;;;;;;5108109;28;20055;-69
2021/08/17 09:37:04;;;;;;;5.07;2.65;;;;;;;;;;5107969;28;20052;-69
2021/08/17 09:39:35;;;;;;;6.60;2.92;;;;;;;;;;5107610;28;20070;-69
2021/08/17 09:42:23;;;;;;;6.22;3.10;;;;;;;;;;5114360;28;20147;-69
2021/08/17 09:45:12;;;;;;;7.93;3.67;;;;;;;;;;5108621;28;20051;-69
2021/08/17 09:47:40;;;;;;;6.60;3.30;;;;;;;;;;5114486;28;20055;-69
2021/08/17 09:50:28;;;;;;;7.68;3.60;;;;;;;;;;5114015;28;20479;-69
2021/08/17 09:53:13;;;;;;;7.00;2.83;;;;;;;;;;5109069;28;20056;-69
2021/08/17 09:55:44;;;;;;;5.75;3.20;;;;;;;;;;5114037;28;20060;-69
2021/08/17 09:58:18;;;;;;;6.00;3.05;;;;;;;;;;5114324;28;20058;-71
2021/08/17 10:00:45;;;;;;;7.13;3.08;;;;;;;;;;5113715;28;20052;-69
2021/08/17 10:03:11;;;;;;;6.25;3.20;;;;;;;;;;5114117;28;20122;-71
2021/08/17 10:05:38;;;;;;;6.35;2.65;;;;;;;;;;5113785;28;20040;-70
2021/08/17 10:08:07;;;;;;;8.00;3.22;;;;;;;;;;5113211;28;20381;-70
2021/08/17 10:10:34;;;;;;;8.27;3.55;;;;;;;;;;5113341;28;20047;-70
2021/08/17 10:13:02;;;;;;;7.05;3.00;;;;;;;;;;5111838;28;20047;-70
2021/08/17 10:15:29;;;;;;;6.25;2.97;;;;;;;;;;5103589;28;20407;-70
2021/08/17 10:17:57;;;;;;;18.63;3.60;;;;;;;;;;5110407;28;20142;-70
2021/08/17 10:20:24;;;;;;;6.10;3.28;;;;;;;;;;5103527;28;20055;-70
2021/08/17 10:22:50;;;;;;;9.95;3.00;;;;;;;;;;5113698;28;20463;-70
2021/08/17 10:25:20;;;;;;;17.88;4.55;;;;;;;;;;5113484;28;20043;-70
2021/08/17 10:27:47;;;;;;;6.40;3.55;;;;;;;;;;5112420;28;20070;-69
2021/08/17 10:30:21;;;;;;;7.32;3.45;;;;;;;;;;5113146;28;20043;-70
2021/08/17 10:32:57;;;;;;;7.28;3.33;;;;;;;;;;5112990;28;20043;-69
2021/08/17 10:35:56;;;;;;;8.80;3.30;;;;;;;;;;5107627;28;20055;-69
2021/08/17 10:38:48;;;;;;;7.45;3.50;;;;;;;;;;5093602;28;20532;-69
2021/08/17 10:41:16;;;;;;;6.05;3.05;;;;;;;;;;5092758;28;20058;-69
2021/08/17 10:44:14;;;;;;;5.10;2.72;;;;;;;;;;5105990;28;20396;-69
2021/08/17 10:46:44;;;;;;;9.38;3.65;;;;;;;;;;5113234;28;20095;-70
2021/08/17 10:49:45;;;;;;;6.38;3.58;;;;;;;;;;5112931;28;20051;-69
2021/08/17 10:52:26;;;;;;;6.45;3.70;;;;;;;;;;5107655;28;20437;-70
2021/08/17 10:55:20;;;;;;;10.98;3.50;;;;;;;;;;5112081;28;20055;-70
2021/08/17 10:57:52;;;;;;;6.18;3.10;;;;;;;;;;5108192;28;20058;-69
2021/08/17 11:00:44;;;;;;;7.45;3.05;;;;;;;;;;5112545;28;20047;-69
2021/08/17 11:03:12;;;;;;;7.53;2.97;;;;;;;;;;5112808;28;20071;-69
2021/08/17 11:05:51;;;;;;;6.20;3.08;;;;;;;;;;5112587;28;20258;-69
2021/08/17 11:08:36;;;;;;;7.18;3.50;;;;;;;;;;5112832;28;20044;-70
2021/08/17 11:11:04;;;;;;;5.50;3.20;;;;;;;;;;5112550;28;20052;-69
2021/08/17 11:13:30;;;;;;;8.82;3.10;;;;;;;;;;5112205;28;20063;-69
2021/08/17 11:16:07;;;;;;;5.00;3.10;;;;;;;;;;5111754;28;20046;-69
2021/08/17 11:21:33;;;;;;;;;;;;;;;;;;5130193;27;20395;-69
2021/08/17 11:24:20;;;;;;;8.98;3.13;;;;;;;;;;5130393;28;20379;-69
2021/08/17 11:26:49;;;;;;;5.60;2.80;;;;;;;;;;5129463;28;20044;-69
2021/08/17 11:29:17;;;;;;;6.40;3.17;;;;;;;;;;5129937;27;20059;-69
2021/08/17 11:31:46;;;;;;;5.68;3.70;;;;;;;;;;5129482;27;20391;-69
2021/08/17 11:34:20;;;;;;;6.60;3.08;;;;;;;;;;5129464;28;20043;-69
2021/08/17 11:36:53;;;;;;;7.15;3.63;;;;;;;;;;5128332;28;20047;-69
2021/08/17 11:39:21;;;;;;;5.10;3.47;;;;;;;;;;5129329;28;20051;-69
2021/08/17 11:41:48;;;;;;;5.63;3.60;;;;;;;;;;5129695;28;20669;-69
2021/08/17 11:44:15;;;;;;;4.57;3.00;;;;;;;;;;5129318;27;20054;-69
2021/08/17 11:46:42;;;;;;;6.18;3.72;;;;;;;;;;5129666;27;20051;-71
2021/08/17 11:49:26;;;;;;;5.72;3.45;;;;;;;;;;5129188;28;20058;-69
2021/08/17 11:52:05;;;;;;;6.82;2.85;;;;;;;;;;5129261;28;20051;-69
2021/08/17 11:54:32;;;;;;;6.88;3.38;;;;;;;;;;5129506;28;20054;-69
2021/08/17 11:57:01;;;;;;;6.40;3.40;;;;;;;;;;5128929;28;20043;-70
2021/08/17 11:59:38;;;;;;;6.70;4.13;;;;;;;;;;5129152;27;20554;-70
2021/08/17 12:02:05;;;;;;;5.57;3.50;;;;;;;;;;5128864;28;20055;-70
2021/08/17 12:04:31;;;;;;;7.45;3.50;;;;;;;;;;5129404;28;20043;-70
2021/08/17 12:07:16;;;;;;;5.55;3.38;;;;;;;;;;5129071;27;20407;-70
2021/08/17 12:09:43;;;;;;;5.35;3.38;;;;;;;;;;5128830;28;20050;-70
2021/08/17 12:12:12;;;;;;;7.07;3.70;;;;;;;;;;5128494;28;20043;-70
2021/08/17 12:14:39;;;;;;;6.30;3.30;;;;;;;;;;5128996;28;20208;-69
2021/08/17 12:17:07;;;;;;;8.63;3.30;;;;;;;;;;5129036;28;20500;-69
2021/08/17 12:19:35;;;;;;;8.70;3.63;;;;;;;;;;5128003;28;20487;-70
2021/08/17 12:22:01;;;;;;;5.80;3.47;;;;;;;;;;5128636;28;20134;-70
2021/08/17 12:24:33;;;;;;;5.70;3.60;;;;;;;;;;5128740;27;20051;-70
2021/08/17 12:27:01;;;;;;;5.07;3.35;;;;;;;;;;5128764;28;20133;-70
2021/08/17 12:29:37;;;;;;;6.60;3.90;;;;;;;;;;5128582;28;20404;-70
2021/08/17 12:32:15;;;;;;;5.82;3.17;;;;;;;;;;5118715;28;20057;-70
2021/08/17 12:34:43;;;;;;;6.10;3.40;;;;;;;;;;5114463;28;20051;-70
2021/08/17 12:37:25;;;;;;;5.03;3.00;;;;;;;;;;5113227;28;20469;-71
2021/08/17 12:39:55;;;;;;;6.85;3.22;;;;;;;;;;5106756;28;20042;-70
2021/08/17 12:42:21;;;;;;;5.72;2.85;;;;;;;;;;5114784;28;20043;-70
2021/08/17 12:44:48;;;;;;;8.63;3.40;;;;;;;;;;5114709;28;20054;-70
2021/08/17 12:47:18;;;;;;;6.97;3.72;;;;;;;;;;5114747;28;20082;-70
2021/08/17 12:49:46;;;;;;;5.35;3.28;;;;;;;;;;5114427;28;20077;-70
2021/08/17 12:52:27;;;;;;;7.78;3.03;;;;;;;;;;5114648;28;20047;-69
2021/08/17 12:54:57;;;;;;;6.30;3.22;;;;;;;;;;5114609;28;20051;-71
2021/08/17 12:57:25;;;;;;;6.13;3.22;;;;;;;;;;5113111;28;20053;-69
2021/08/17 12:59:52;;;;;;;4.38;2.80;;;;;;;;;;5113955;28;20059;-69
2021/08/17 13:02:18;;;;;;;7.25;3.20;;;;;;;;;;5113787;28;20142;-69
2021/08/17 13:04:45;;;;;;;6.20;3.28;;;;;;;;;;5114427;28;20062;-68
2021/08/17 13:07:12;;;;;;;6.03;3.08;;;;;;;;;;5114380;27;20142;-69
2021/08/17 13:09:39;;;;;;;5.72;3.45;;;;;;;;;;5114473;28;20449;-68
2021/08/17 13:12:08;;;;;;;8.50;4.22;;;;;;;;;;5117071;27;20652;-70
2021/08/17 13:14:35;;;;;;;7.50;3.83;;;;;;;;;;5114050;28;20062;-68
2021/08/17 13:17:02;;;;;;;7.10;3.65;;;;;;;;;;5113805;28;20114;-69
2021/08/17 13:19:28;;;;;;;5.80;3.40;;;;;;;;;;5113745;28;20059;-69
2021/08/17 13:21:55;;;;;;;7.00;3.05;;;;;;;;;;5113864;28;20058;-71
2021/08/17 13:24:22;;;;;;;4.85;3.00;;;;;;;;;;5113981;28;20047;-71
2021/08/17 13:26:49;;;;;;;5.30;3.30;;;;;;;;;;5113603;28;20052;-71
2021/08/17 13:29:17;;;;;;;6.43;3.22;;;;;;;;;;5114025;28;20060;-71
2021/08/17 13:31:43;;;;;;;5.07;3.00;;;;;;;;;;5113947;28;20044;-70
2021/08/17 13:34:10;;;;;;;4.70;2.83;;;;;;;;;;5113454;28;20684;-70
2021/08/17 13:36:36;;;;;;;6.07;3.15;;;;;;;;;;5109464;27;20471;-70
2021/08/17 13:39:03;;;;;;;6.40;2.50;;;;;;;;;;5112509;28;20039;-72
2021/08/17 13:41:31;;;;;;;4.47;2.58;;;;;;;;;;5113626;28;20059;-70
2021/08/17 13:43:58;;;;;;;7.00;3.25;;;;;;;;;;5112515;28;20040;-71
2021/08/17 13:46:26;;;;;;;5.93;2.83;;;;;;;;;;5113518;28;20134;-69
2021/08/17 13:48:52;;;;;;;5.50;2.83;;;;;;;;;;5113464;28;20047;-69
2021/08/17 13:51:19;;;;;;;7.05;2.97;;;;;;;;;;5113299;28;20130;-69
2021/08/17 13:53:48;;;;;;;5.50;2.58;;;;;;;;;;5113065;28;20051;-69
2021/08/17 13:56:15;;;;;;;5.07;3.00;;;;;;;;;;5112224;28;20051;-69
2021/08/17 13:58:41;;;;;;;4.38;2.50;;;;;;;;;;5112692;28;20059;-69
2021/08/17 14:01:08;;;;;;;5.53;3.00;;;;;;;;;;5112034;28;20448;-69
2021/08/17 14:03:37;;;;;;;4.35;2.90;;;;;;;;;;5112570;28;20059;-71
2021/08/17 14:06:03;;;;;;;6.38;3.00;;;;;;;;;;5113389;28;20473;-70
2021/08/17 14:08:30;;;;;;;6.35;2.58;;;;;;;;;;5111147;28;20061;-69
2021/08/17 14:10:56;;;;;;;7.28;3.10;;;;;;;;;;5112670;28;20040;-69
2021/08/17 14:13:23;;;;;;;5.32;3.17;;;;;;;;;;5112998;28;20051;-69
2021/08/17 14:15:49;;;;;;;5.00;3.03;;;;;;;;;;5113078;28;20044;-68
2021/08/17 14:18:16;;;;;;;6.90;3.03;;;;;;;;;;5113050;28;20054;-68
2021/08/17 14:20:44;;;;;;;5.75;2.65;;;;;;;;;;5112189;28;20043;-68
2021/08/17 14:23:10;;;;;;;4.78;2.95;;;;;;;;;;5112468;28;20071;-68
2021/08/17 14:25:37;;;;;;;6.43;3.22;;;;;;;;;;5112223;28;20047;-68
2021/08/17 14:28:04;;;;;;;8.98;3.95;;;;;;;;;;5112705;28;20075;-68
2021/08/17 14:30:30;;;;;;;6.13;3.05;;;;;;;;;;5112373;28;20048;-69
2021/08/17 14:32:57;;;;;;;4.97;2.92;;;;;;;;;;5112373;28;20048;-68
2021/08/17 14:35:23;;;;;;;6.13;3.30;;;;;;;;;;5112757;28;20044;-68
2021/08/17 14:37:51;;;;;;;6.32;3.80;;;;;;;;;;5111521;28;20058;-68
2021/08/17 14:40:18;;;;;;;5.97;2.90;;;;;;;;;;5111527;28;20048;-70
2021/08/17 14:42:44;;;;;;;4.82;2.75;;;;;;;;;;5112155;28;20177;-69
2021/08/17 14:45:11;;;;;;;6.47;3.13;;;;;;;;;;5112785;28;20051;-69
2021/08/17 14:47:38;;;;;;;5.60;3.00;;;;;;;;;;5112419;28;20047;-69
2021/08/17 14:50:05;;;;;;;5.47;2.92;;;;;;;;;;5111912;28;20039;-69
2021/08/17 14:52:32;;;;;;;7.50;3.72;;;;;;;;;;5111743;28;20403;-69